createdAt,value
2019-03-15T00:00:02.579Z,1003.64
2019-03-15T00:01:02.570Z,1003.65
2019-03-15T00:02:02.394Z,1003.65
2019-03-15T00:03:04.326Z,1003.68
2019-03-15T00:04:02.223Z,1003.69
2019-03-15T00:05:02.151Z,1003.72
2019-03-15T00:06:02.096Z,1003.75
2019-03-15T00:07:01.973Z,1003.72
2019-03-15T00:08:01.880Z,1003.72
2019-03-15T00:09:01.808Z,1003.74
2019-03-15T00:10:01.727Z,1003.72
2019-03-15T00:11:01.625Z,1003.70
2019-03-15T00:12:01.637Z,1003.76
2019-03-15T00:13:01.457Z,1003.79
2019-03-15T00:14:01.368Z,1003.79
2019-03-15T00:15:01.367Z,1003.79
2019-03-15T00:16:01.199Z,1003.84
2019-03-15T00:17:01.145Z,1003.92
2019-03-15T00:18:01.032Z,1003.92
2019-03-15T00:19:01.059Z,1003.93
2019-03-15T00:20:00.879Z,1003.88
2019-03-15T00:21:01.788Z,1003.92
2019-03-15T00:22:00.691Z,1003.96
2019-03-15T00:23:00.674Z,1004.01
2019-03-15T00:24:00.526Z,1003.95
2019-03-15T00:25:00.471Z,1003.96
2019-03-15T00:26:01.419Z,1003.97
2019-03-15T00:27:00.271Z,1003.93
2019-03-15T00:28:00.187Z,1003.94
2019-03-15T00:29:00.213Z,1003.82
2019-03-15T00:30:00.026Z,1003.87
2019-03-15T00:30:59.926Z,1003.83
2019-03-15T00:32:01.866Z,1003.84
2019-03-15T00:32:59.754Z,1003.87
2019-03-15T00:33:59.726Z,1003.87
2019-03-15T00:34:59.601Z,1003.82
2019-03-15T00:35:59.540Z,1003.85
2019-03-15T00:36:59.420Z,1003.88
2019-03-15T00:37:59.449Z,1003.77
2019-03-15T00:38:59.242Z,1003.89
2019-03-15T00:39:59.176Z,1003.92
2019-03-15T00:40:59.161Z,1003.89
2019-03-15T00:41:58.993Z,1003.93
2019-03-15T00:42:58.907Z,1003.93
2019-03-15T00:44:05.835Z,1003.88
2019-03-15T00:44:58.753Z,1003.98
2019-03-15T00:45:58.651Z,1004.04
2019-03-15T00:46:58.588Z,1004.05
2019-03-15T00:47:58.480Z,1004.05
2019-03-15T00:48:58.495Z,1004.06
2019-03-15T00:49:58.328Z,1004.08
2019-03-15T00:50:58.225Z,1004.04
2019-03-15T00:51:58.211Z,1004.05
2019-03-15T00:52:58.059Z,1004.04
2019-03-15T00:53:57.976Z,1004.03
2019-03-15T00:54:57.969Z,1004.04
2019-03-15T00:55:57.804Z,1004.05
2019-03-15T00:56:57.735Z,1004.04
2019-03-15T00:57:57.629Z,1004.04
2019-03-15T00:58:57.648Z,1004.01
2019-03-15T00:59:57.477Z,1003.99
2019-03-15T01:00:57.456Z,1004.00
2019-03-15T01:01:57.293Z,1003.92
2019-03-15T01:02:57.266Z,1003.91
2019-03-15T01:03:57.121Z,1003.92
2019-03-15T01:04:57.047Z,1003.93
2019-03-15T01:05:56.981Z,1003.94
2019-03-15T01:06:56.866Z,1003.99
2019-03-15T01:07:56.788Z,1004.02
2019-03-15T01:08:56.797Z,1004.04
2019-03-15T01:09:56.624Z,1004.03
2019-03-15T01:10:56.527Z,1004.01
2019-03-15T01:11:56.514Z,1003.98
2019-03-15T01:12:56.361Z,1004.02
2019-03-15T01:13:56.282Z,1004.02
2019-03-15T01:14:56.199Z,1003.97
2019-03-15T01:15:56.130Z,1003.93
2019-03-15T01:16:56.019Z,1003.97
2019-03-15T01:17:56.038Z,1003.94
2019-03-15T01:18:55.850Z,1003.91
2019-03-15T01:19:55.882Z,1003.86
2019-03-15T01:20:55.677Z,1003.86
2019-03-15T01:21:55.657Z,1003.85
2019-03-15T01:22:55.508Z,1003.89
2019-03-15T01:23:55.470Z,1003.90
2019-03-15T01:24:55.335Z,1003.85
2019-03-15T01:25:55.309Z,1003.83
2019-03-15T01:26:55.162Z,1003.82
2019-03-15T01:27:55.193Z,1003.81
2019-03-15T01:28:55.014Z,1003.74
2019-03-15T01:29:54.997Z,1003.73
2019-03-15T01:30:55.063Z,1003.73
2019-03-15T01:31:54.808Z,1003.74
2019-03-15T01:32:54.659Z,1003.73
2019-03-15T01:33:54.616Z,1003.78
2019-03-15T01:34:54.492Z,1003.75
2019-03-15T01:35:54.457Z,1003.78
2019-03-15T01:36:54.337Z,1003.79
2019-03-15T01:37:54.334Z,1003.78
2019-03-15T01:38:54.147Z,1003.77
2019-03-15T01:39:54.144Z,1003.74
2019-03-15T01:40:53.990Z,1003.71
2019-03-15T01:41:53.902Z,1003.75
2019-03-15T01:42:53.855Z,1003.70
2019-03-15T01:43:53.721Z,1003.74
2019-03-15T01:44:53.642Z,1003.75
2019-03-15T01:45:53.613Z,1003.71
2019-03-15T01:46:53.473Z,1003.74
2019-03-15T01:47:53.385Z,1003.69
2019-03-15T01:48:54.408Z,1003.70
2019-03-15T01:49:53.263Z,1003.65
2019-03-15T01:50:53.141Z,1003.66
2019-03-15T01:51:53.099Z,1003.67
2019-03-15T01:52:52.961Z,1003.67
2019-03-15T01:53:52.910Z,1003.65
2019-03-15T01:54:52.787Z,1003.66
2019-03-15T01:55:52.750Z,1003.66
2019-03-15T01:56:52.624Z,1003.69
2019-03-15T01:57:52.627Z,1003.59
2019-03-15T01:58:52.444Z,1003.56
2019-03-15T01:59:53.477Z,1003.54
2019-03-15T02:00:52.286Z,1003.57
2019-03-15T02:01:52.189Z,1003.53
2019-03-15T02:02:52.155Z,1003.56
2019-03-15T02:03:52.017Z,1003.58
2019-03-15T02:04:51.931Z,1003.61
2019-03-15T02:05:55.384Z,1003.57
2019-03-15T02:06:51.764Z,1003.57
2019-03-15T02:07:51.780Z,1003.63
2019-03-15T02:08:52.509Z,1003.59
2019-03-15T02:09:51.596Z,1003.53
2019-03-15T02:10:51.439Z,1003.52
2019-03-15T02:11:51.341Z,1003.51
2019-03-15T02:12:51.317Z,1003.50
2019-03-15T02:13:51.228Z,1003.49
2019-03-15T02:14:51.090Z,1003.50
2019-03-15T02:15:51.047Z,1003.52
2019-03-15T02:16:50.909Z,1003.45
2019-03-15T02:17:50.822Z,1003.47
2019-03-15T02:18:50.842Z,1003.51
2019-03-15T02:19:50.653Z,1003.55
2019-03-15T02:20:50.592Z,1003.53
2019-03-15T02:21:50.542Z,1003.57
2019-03-15T02:22:50.398Z,1003.56
2019-03-15T02:23:50.329Z,1003.51
2019-03-15T02:24:50.253Z,1003.51
2019-03-15T02:25:50.158Z,1003.52
2019-03-15T02:26:50.061Z,1003.46
2019-03-15T02:27:50.072Z,1003.48
2019-03-15T02:28:49.919Z,1003.45
2019-03-15T02:29:49.803Z,1003.37
2019-03-15T02:30:49.814Z,1003.47
2019-03-15T02:31:49.637Z,1003.46
2019-03-15T02:32:49.594Z,1003.49
2019-03-15T02:33:49.468Z,1003.46
2019-03-15T02:35:04.356Z,1003.49
2019-03-15T02:35:49.304Z,1003.46
2019-03-15T02:36:49.212Z,1003.43
2019-03-15T02:37:49.221Z,1003.43
2019-03-15T02:38:49.033Z,1003.38
2019-03-15T02:39:48.949Z,1003.38
2019-03-15T02:40:52.341Z,1003.35
2019-03-15T02:41:48.778Z,1003.34
2019-03-15T02:42:48.692Z,1003.27
2019-03-15T02:43:48.648Z,1003.34
2019-03-15T02:44:48.534Z,1003.39
2019-03-15T02:45:48.449Z,1003.40
2019-03-15T02:46:50.407Z,1003.39
2019-03-15T02:47:48.270Z,1003.30
2019-03-15T02:48:48.272Z,1003.33
2019-03-15T02:49:48.098Z,1003.29
2019-03-15T02:50:48.112Z,1003.29
2019-03-15T02:51:47.927Z,1003.28
2019-03-15T02:52:48.078Z,1003.25
2019-03-15T02:53:47.792Z,1003.27
2019-03-15T02:54:47.677Z,1003.28
2019-03-15T02:55:48.248Z,1003.25
2019-03-15T02:56:47.548Z,1003.24
2019-03-15T02:57:47.419Z,1003.27
2019-03-15T02:58:49.365Z,1003.23
2019-03-15T02:59:47.597Z,1003.21
2019-03-15T03:00:47.227Z,1003.27
2019-03-15T03:01:47.096Z,1003.30
2019-03-15T03:02:47.037Z,1003.30
2019-03-15T03:03:47.279Z,1003.36
2019-03-15T03:04:46.835Z,1003.40
2019-03-15T03:05:46.736Z,1003.45
2019-03-15T03:06:46.687Z,1003.39
2019-03-15T03:07:48.097Z,1003.38
2019-03-15T03:08:46.566Z,1003.33
2019-03-15T03:09:46.405Z,1003.30
2019-03-15T03:10:52.826Z,1003.32
2019-03-15T03:11:46.239Z,1003.31
2019-03-15T03:12:46.185Z,1003.29
2019-03-15T03:13:46.059Z,1003.31
2019-03-15T03:14:45.994Z,1003.32
2019-03-15T03:15:45.895Z,1003.29
2019-03-15T03:16:46.251Z,1003.27
2019-03-15T03:17:45.721Z,1003.26
2019-03-15T03:18:45.637Z,1003.34
2019-03-15T03:19:45.618Z,1003.33
2019-03-15T03:20:45.620Z,1003.32
2019-03-15T03:21:45.396Z,1003.31
2019-03-15T03:22:45.340Z,1003.33
2019-03-15T03:23:45.209Z,1003.38
2019-03-15T03:24:45.126Z,1003.35
2019-03-15T03:25:45.059Z,1003.32
2019-03-15T03:26:44.968Z,1003.28
2019-03-15T03:27:44.870Z,1003.27
2019-03-15T03:28:44.868Z,1003.27
2019-03-15T03:29:44.724Z,1003.25
2019-03-15T03:30:46.646Z,1003.19
2019-03-15T03:31:45.883Z,1003.15
2019-03-15T03:32:44.956Z,1003.16
2019-03-15T03:33:44.359Z,1003.19
2019-03-15T03:34:45.315Z,1003.20
2019-03-15T03:35:44.196Z,1003.22
2019-03-15T03:36:44.122Z,1003.22
2019-03-15T03:37:45.142Z,1003.22
2019-03-15T03:38:44.323Z,1003.18
2019-03-15T03:39:58.862Z,1003.15
2019-03-15T03:40:43.763Z,1003.15
2019-03-15T03:41:43.770Z,1003.13
2019-03-15T03:42:43.605Z,1003.13
2019-03-15T03:43:43.510Z,1003.13
2019-03-15T03:44:43.536Z,1003.15
2019-03-15T03:45:43.340Z,1003.16
2019-03-15T03:46:43.269Z,1003.15
2019-03-15T03:47:43.504Z,1003.18
2019-03-15T03:48:43.099Z,1003.13
2019-03-15T03:49:43.002Z,1003.16
2019-03-15T03:50:43.471Z,1003.11
2019-03-15T03:51:42.845Z,1003.07
2019-03-15T03:52:42.745Z,1003.04
2019-03-15T03:53:42.679Z,1003.07
2019-03-15T03:54:42.582Z,1003.01
2019-03-15T03:55:42.493Z,1003.03
2019-03-15T03:56:43.435Z,1003.00
2019-03-15T03:57:42.327Z,1002.98
2019-03-15T03:58:42.242Z,1002.97
2019-03-15T03:59:42.209Z,1002.91
2019-03-15T04:00:42.072Z,1002.90
2019-03-15T04:01:42.047Z,1002.89
2019-03-15T04:02:41.896Z,1002.91
2019-03-15T04:03:41.818Z,1002.91
2019-03-15T04:04:41.832Z,1002.89
2019-03-15T04:05:41.642Z,1002.87
2019-03-15T04:06:41.571Z,1002.76
2019-03-15T04:07:41.547Z,1002.79
2019-03-15T04:08:41.389Z,1002.80
2019-03-15T04:09:41.370Z,1002.80
2019-03-15T04:10:41.218Z,1002.79
2019-03-15T04:11:54.343Z,1002.81
2019-03-15T04:12:41.055Z,1002.78
2019-03-15T04:13:41.078Z,1002.77
2019-03-15T04:14:40.878Z,1002.78
2019-03-15T04:15:42.830Z,1002.81
2019-03-15T04:16:40.718Z,1002.84
2019-03-15T04:17:40.638Z,1002.88
2019-03-15T04:18:40.598Z,1002.87
2019-03-15T04:19:40.465Z,1002.86
2019-03-15T04:20:40.369Z,1002.78
2019-03-15T04:21:40.311Z,1002.78
2019-03-15T04:22:40.211Z,1002.75
2019-03-15T04:23:40.223Z,1002.76
2019-03-15T04:24:40.036Z,1002.79
2019-03-15T04:25:40.652Z,1002.87
2019-03-15T04:26:39.869Z,1002.85
2019-03-15T04:27:39.868Z,1002.88
2019-03-15T04:28:39.690Z,1002.89
2019-03-15T04:29:39.609Z,1002.86
2019-03-15T04:30:39.554Z,1002.78
2019-03-15T04:31:39.436Z,1002.85
2019-03-15T04:32:39.361Z,1002.83
2019-03-15T04:33:39.370Z,1002.83
2019-03-15T04:34:39.181Z,1002.87
2019-03-15T04:35:39.183Z,1002.88
2019-03-15T04:36:39.020Z,1002.85
2019-03-15T04:37:39.019Z,1002.82
2019-03-15T04:38:38.850Z,1002.80
2019-03-15T04:39:38.758Z,1002.84
2019-03-15T04:40:38.708Z,1002.80
2019-03-15T04:41:38.588Z,1002.84
2019-03-15T04:42:38.524Z,1002.80
2019-03-15T04:43:38.524Z,1002.82
2019-03-15T04:44:38.334Z,1002.78
2019-03-15T04:45:38.330Z,1002.76
2019-03-15T04:46:38.166Z,1002.74
2019-03-15T04:47:38.161Z,1002.74
2019-03-15T04:48:37.996Z,1002.78
2019-03-15T04:49:37.950Z,1002.77
2019-03-15T04:50:37.824Z,1002.75
2019-03-15T04:51:37.759Z,1002.71
2019-03-15T04:52:37.669Z,1002.69
2019-03-15T04:53:37.669Z,1002.67
2019-03-15T04:54:37.496Z,1002.64
2019-03-15T04:55:37.511Z,1002.65
2019-03-15T04:56:37.318Z,1002.67
2019-03-15T04:57:37.313Z,1002.65
2019-03-15T04:58:37.151Z,1002.69
2019-03-15T04:59:37.063Z,1002.71
2019-03-15T05:00:36.979Z,1002.65
2019-03-15T05:01:36.891Z,1002.68
2019-03-15T05:02:36.837Z,1002.67
2019-03-15T05:03:36.731Z,1002.66
2019-03-15T05:04:36.633Z,1002.69
2019-03-15T05:05:36.622Z,1002.65
2019-03-15T05:06:36.471Z,1002.64
2019-03-15T05:07:36.395Z,1002.63
2019-03-15T05:08:36.334Z,1002.69
2019-03-15T05:09:36.220Z,1002.69
2019-03-15T05:10:36.147Z,1002.68
2019-03-15T05:11:36.046Z,1002.68
2019-03-15T05:12:36.090Z,1002.66
2019-03-15T05:13:35.876Z,1002.69
2019-03-15T05:14:35.865Z,1002.74
2019-03-15T05:15:35.703Z,1002.69
2019-03-15T05:16:35.677Z,1002.68
2019-03-15T05:17:35.543Z,1002.59
2019-03-15T05:18:35.485Z,1002.71
2019-03-15T05:19:35.370Z,1002.68
2019-03-15T05:20:35.293Z,1002.65
2019-03-15T05:21:35.204Z,1002.64
2019-03-15T05:22:35.240Z,1002.65
2019-03-15T05:23:35.038Z,1002.58
2019-03-15T05:24:35.021Z,1002.59
2019-03-15T05:25:34.860Z,1002.52
2019-03-15T05:26:34.828Z,1002.47
2019-03-15T05:27:34.707Z,1002.49
2019-03-15T05:28:34.630Z,1002.46
2019-03-15T05:29:34.523Z,1002.43
2019-03-15T05:30:34.544Z,1002.42
2019-03-15T05:31:34.346Z,1002.38
2019-03-15T05:32:34.385Z,1002.35
2019-03-15T05:33:34.175Z,1002.37
2019-03-15T05:34:34.161Z,1002.33
2019-03-15T05:35:34.015Z,1002.27
2019-03-15T05:36:33.976Z,1002.29
2019-03-15T05:37:33.860Z,1002.27
2019-03-15T05:38:35.116Z,1002.25
2019-03-15T05:39:33.672Z,1002.19
2019-03-15T05:40:33.591Z,1002.19
2019-03-15T05:41:33.502Z,1002.17
2019-03-15T05:42:33.528Z,1002.17
2019-03-15T05:43:33.349Z,1002.16
2019-03-15T05:44:33.244Z,1002.18
2019-03-15T05:45:34.236Z,1002.18
2019-03-15T05:46:33.083Z,1002.17
2019-03-15T05:47:32.991Z,1002.18
2019-03-15T05:48:33.007Z,1002.16
2019-03-15T05:49:32.818Z,1002.17
2019-03-15T05:50:32.740Z,1002.20
2019-03-15T05:51:32.782Z,1002.16
2019-03-15T05:52:32.567Z,1002.16
2019-03-15T05:53:32.497Z,1002.15
2019-03-15T05:54:32.597Z,1002.16
2019-03-15T05:55:32.311Z,1002.16
2019-03-15T05:56:32.406Z,1002.13
2019-03-15T05:57:32.144Z,1002.10
2019-03-15T05:58:32.254Z,1002.13
2019-03-15T05:59:31.971Z,1002.16
2019-03-15T06:00:32.023Z,1002.10
2019-03-15T06:01:31.802Z,1002.11
2019-03-15T06:02:31.838Z,1002.08
2019-03-15T06:03:31.666Z,1002.07
2019-03-15T06:04:31.565Z,1002.05
2019-03-15T06:05:31.462Z,1002.06
2019-03-15T06:06:31.404Z,1002.11
2019-03-15T06:07:31.295Z,1002.06
2019-03-15T06:08:31.288Z,1002.03
2019-03-15T06:09:31.126Z,1002.02
2019-03-15T06:10:31.066Z,1002.04
2019-03-15T06:11:30.956Z,1002.03
2019-03-15T06:12:31.084Z,1002.05
2019-03-15T06:13:30.858Z,1002.05
2019-03-15T06:14:30.890Z,1002.04
2019-03-15T06:15:30.614Z,1002.01
2019-03-15T06:16:30.695Z,1002.00
2019-03-15T06:17:30.456Z,1001.97
2019-03-15T06:18:30.547Z,1001.94
2019-03-15T06:19:30.278Z,1001.95
2019-03-15T06:20:30.313Z,1001.97
2019-03-15T06:21:30.110Z,1001.97
2019-03-15T06:22:30.124Z,1001.96
2019-03-15T06:23:29.951Z,1001.91
2019-03-15T06:24:29.856Z,1001.90
2019-03-15T06:25:29.957Z,1001.89
2019-03-15T06:26:29.682Z,1001.84
2019-03-15T06:27:31.213Z,1001.89
2019-03-15T06:28:29.594Z,1001.87
2019-03-15T06:29:29.463Z,1001.81
2019-03-15T06:30:29.342Z,1001.83
2019-03-15T06:31:29.264Z,1001.87
2019-03-15T06:32:29.184Z,1001.86
2019-03-15T06:33:29.111Z,1001.85
2019-03-15T06:34:29.015Z,1001.85
2019-03-15T06:35:28.936Z,1001.85
2019-03-15T06:36:28.850Z,1001.88
2019-03-15T06:37:28.752Z,1001.83
2019-03-15T06:38:28.677Z,1001.80
2019-03-15T06:39:28.587Z,1001.83
2019-03-15T06:40:28.515Z,1001.80
2019-03-15T06:41:28.425Z,1001.80
2019-03-15T06:42:28.338Z,1001.87
2019-03-15T06:43:28.257Z,1001.84
2019-03-15T06:44:28.169Z,1001.88
2019-03-15T06:45:28.071Z,1001.89
2019-03-15T06:46:27.989Z,1001.82
2019-03-15T06:47:27.922Z,1001.81
2019-03-15T06:48:28.267Z,1001.83
2019-03-15T06:49:27.733Z,1001.81
2019-03-15T06:50:27.654Z,1001.82
2019-03-15T06:51:27.567Z,1001.78
2019-03-15T06:52:27.495Z,1001.76
2019-03-15T06:53:27.407Z,1001.74
2019-03-15T06:54:27.315Z,1001.71
2019-03-15T06:55:27.231Z,1001.70
2019-03-15T06:56:27.146Z,1001.72
2019-03-15T06:57:27.056Z,1001.68
2019-03-15T06:58:26.993Z,1001.77
2019-03-15T06:59:26.885Z,1001.71
2019-03-15T07:00:26.819Z,1001.72
2019-03-15T07:01:26.729Z,1001.74
2019-03-15T07:02:26.631Z,1001.74
2019-03-15T07:03:26.561Z,1001.66
2019-03-15T07:04:26.471Z,1001.67
2019-03-15T07:05:26.386Z,1001.62
2019-03-15T07:06:26.299Z,1001.60
2019-03-15T07:07:26.207Z,1001.57
2019-03-15T07:08:26.170Z,1001.58
2019-03-15T07:09:26.043Z,1001.52
2019-03-15T07:10:25.959Z,1001.43
2019-03-15T07:11:25.882Z,1001.44
2019-03-15T07:12:25.795Z,1001.43
2019-03-15T07:13:25.712Z,1001.44
2019-03-15T07:14:25.639Z,1001.46
2019-03-15T07:15:25.535Z,1001.48
2019-03-15T07:16:25.448Z,1001.43
2019-03-15T07:17:25.366Z,1001.47
2019-03-15T07:18:25.302Z,1001.46
2019-03-15T07:19:28.901Z,1001.45
2019-03-15T07:20:25.121Z,1001.44
2019-03-15T07:21:25.026Z,1001.42
2019-03-15T07:22:24.953Z,1001.41
2019-03-15T07:23:24.860Z,1001.46
2019-03-15T07:24:25.731Z,1001.47
2019-03-15T07:25:24.696Z,1001.46
2019-03-15T07:26:24.607Z,1001.44
2019-03-15T07:27:24.517Z,1001.43
2019-03-15T07:28:24.444Z,1001.39
2019-03-15T07:29:24.363Z,1001.36
2019-03-15T07:30:24.269Z,1001.35
2019-03-15T07:31:24.191Z,1001.31
2019-03-15T07:32:24.102Z,1001.32
2019-03-15T07:33:24.007Z,1001.24
2019-03-15T07:34:23.977Z,1001.21
2019-03-15T07:35:23.850Z,1001.15
2019-03-15T07:36:23.761Z,1001.20
2019-03-15T07:37:23.676Z,1001.15
2019-03-15T07:38:23.586Z,1001.14
2019-03-15T07:39:26.459Z,1001.11
2019-03-15T07:40:23.421Z,1001.06
2019-03-15T07:41:25.394Z,1001.03
2019-03-15T07:42:23.253Z,1001.00
2019-03-15T07:43:23.165Z,1000.98
2019-03-15T07:44:23.107Z,1000.91
2019-03-15T07:45:22.993Z,1000.92
2019-03-15T07:46:22.915Z,1000.91
2019-03-15T07:47:22.828Z,1000.82
2019-03-15T07:48:23.274Z,1000.86
2019-03-15T07:49:22.675Z,1000.87
2019-03-15T07:50:22.575Z,1000.87
2019-03-15T07:51:22.484Z,1000.88
2019-03-15T07:52:22.409Z,1000.90
2019-03-15T07:53:22.324Z,1000.85
2019-03-15T07:54:22.259Z,1000.91
2019-03-15T07:55:22.149Z,1000.88
2019-03-15T07:56:22.072Z,1000.91
2019-03-15T07:57:21.988Z,1000.88
2019-03-15T07:58:21.895Z,1000.92
2019-03-15T07:59:22.789Z,1000.84
2019-03-15T08:00:21.744Z,1000.81
2019-03-15T08:01:21.651Z,1000.85
2019-03-15T08:02:21.560Z,1000.82
2019-03-15T08:03:21.482Z,1000.87
2019-03-15T08:04:21.410Z,1000.79
2019-03-15T08:05:21.305Z,1000.83
2019-03-15T08:06:33.743Z,1000.86
2019-03-15T08:07:21.146Z,1000.87
2019-03-15T08:08:21.072Z,1000.82
2019-03-15T08:09:20.983Z,1000.82
2019-03-15T08:10:20.890Z,1000.83
2019-03-15T08:11:20.816Z,1000.79
2019-03-15T08:12:20.718Z,1000.84
2019-03-15T08:13:20.630Z,1000.85
2019-03-15T08:14:20.562Z,1000.83
2019-03-15T08:15:20.472Z,1000.84
2019-03-15T08:16:20.384Z,1000.79
2019-03-15T08:17:20.295Z,1000.76
2019-03-15T08:18:20.213Z,1000.82
2019-03-15T08:19:20.137Z,1000.78
2019-03-15T08:20:20.047Z,1000.78
2019-03-15T08:21:22.632Z,1000.74
2019-03-15T08:22:19.878Z,1000.77
2019-03-15T08:23:19.795Z,1000.74
2019-03-15T08:24:19.715Z,1000.73
2019-03-15T08:25:19.612Z,1000.72
2019-03-15T08:26:19.542Z,1000.68
2019-03-15T08:27:19.458Z,1000.71
2019-03-15T08:28:19.385Z,1000.63
2019-03-15T08:29:19.298Z,1000.70
2019-03-15T08:30:19.205Z,1000.68
2019-03-15T08:31:19.113Z,1000.71
2019-03-15T08:32:19.054Z,1000.71
2019-03-15T08:33:18.972Z,1000.76
2019-03-15T08:34:18.876Z,1000.74
2019-03-15T08:35:18.786Z,1000.81
2019-03-15T08:36:20.289Z,1000.82
2019-03-15T08:37:18.611Z,1000.80
2019-03-15T08:38:18.525Z,1000.78
2019-03-15T08:39:18.438Z,1000.75
2019-03-15T08:40:18.370Z,1000.77
2019-03-15T08:41:18.267Z,1000.73
2019-03-15T08:42:18.189Z,1000.74
2019-03-15T08:43:18.105Z,1000.74
2019-03-15T08:44:18.014Z,1000.75
2019-03-15T08:45:17.944Z,1000.76
2019-03-15T08:46:17.856Z,1000.71
2019-03-15T08:47:17.761Z,1000.76
2019-03-15T08:48:17.678Z,1000.72
2019-03-15T08:49:17.598Z,1000.77
2019-03-15T08:50:17.563Z,1000.72
2019-03-15T08:51:17.431Z,1000.72
2019-03-15T08:52:17.356Z,1000.74
2019-03-15T08:53:17.260Z,1000.73
2019-03-15T08:54:17.180Z,1000.71
2019-03-15T08:55:17.108Z,1000.72
2019-03-15T08:56:17.010Z,1000.74
2019-03-15T08:57:16.924Z,1000.75
2019-03-15T08:58:21.791Z,1000.74
2019-03-15T08:59:16.752Z,1000.77
2019-03-15T09:00:16.682Z,1000.78
2019-03-15T09:01:16.586Z,1000.78
2019-03-15T09:02:16.505Z,1000.77
2019-03-15T09:03:27.222Z,1000.73
2019-03-15T09:04:16.339Z,1000.74
2019-03-15T09:05:16.266Z,1000.73
2019-03-15T09:06:16.173Z,1000.72
2019-03-15T09:07:16.100Z,1000.74
2019-03-15T09:08:16.008Z,1000.78
2019-03-15T09:09:15.919Z,1000.81
2019-03-15T09:10:23.035Z,1000.78
2019-03-15T09:11:15.742Z,1000.80
2019-03-15T09:12:15.671Z,1000.80
2019-03-15T09:13:15.585Z,1000.72
2019-03-15T09:14:15.489Z,1000.73
2019-03-15T09:15:15.427Z,1000.76
2019-03-15T09:16:15.330Z,1000.72
2019-03-15T09:17:15.245Z,1000.76
2019-03-15T09:18:15.151Z,1000.74
2019-03-15T09:19:15.083Z,1000.78
2019-03-15T09:20:15.001Z,1000.82
2019-03-15T09:21:14.908Z,1000.84
2019-03-15T09:22:14.820Z,1000.81
2019-03-15T09:23:14.741Z,1000.78
2019-03-15T09:24:14.653Z,1000.78
2019-03-15T09:25:19.762Z,1000.80
2019-03-15T09:26:14.483Z,1000.77
2019-03-15T09:27:14.400Z,1000.75
2019-03-15T09:28:14.332Z,1000.81
2019-03-15T09:29:14.251Z,1000.74
2019-03-15T09:30:23.119Z,1000.77
2019-03-15T09:31:14.072Z,1000.83
2019-03-15T09:32:13.990Z,1000.76
2019-03-15T09:33:13.916Z,1000.80
2019-03-15T09:34:13.823Z,1000.77
2019-03-15T09:35:13.741Z,1000.78
2019-03-15T09:36:13.651Z,1000.81
2019-03-15T09:37:13.582Z,1000.73
2019-03-15T09:38:13.482Z,1000.78
2019-03-15T09:39:13.396Z,1000.70
2019-03-15T09:40:13.349Z,1000.78
2019-03-15T09:41:13.228Z,1000.77
2019-03-15T09:42:13.157Z,1000.78
2019-03-15T09:43:13.079Z,1000.77
2019-03-15T09:44:13.106Z,1000.77
2019-03-15T09:45:12.953Z,1000.77
2019-03-15T09:46:12.821Z,1000.76
2019-03-15T09:47:12.736Z,1000.72
2019-03-15T09:48:12.659Z,1000.71
2019-03-15T09:49:12.575Z,1000.73
2019-03-15T09:50:22.991Z,1000.68
2019-03-15T09:51:12.402Z,1000.70
2019-03-15T09:52:12.322Z,1000.72
2019-03-15T09:53:12.231Z,1000.76
2019-03-15T09:54:12.155Z,1000.74
2019-03-15T09:55:12.091Z,1000.77
2019-03-15T09:56:11.984Z,1000.77
2019-03-15T09:57:11.917Z,1000.78
2019-03-15T09:58:11.810Z,1000.79
2019-03-15T09:59:11.740Z,1000.73
2019-03-15T10:00:11.644Z,1000.80
2019-03-15T10:01:11.843Z,1000.81
2019-03-15T10:02:11.496Z,1000.84
2019-03-15T10:03:21.484Z,1000.82
2019-03-15T10:04:11.312Z,1000.82
2019-03-15T10:05:11.788Z,1000.80
2019-03-15T10:06:15.777Z,1000.77
2019-03-15T10:07:11.111Z,1000.76
2019-03-15T10:08:11.095Z,1000.81
2019-03-15T10:09:10.938Z,1000.78
2019-03-15T10:10:13.935Z,1000.78
2019-03-15T10:11:10.750Z,1000.78
2019-03-15T10:12:10.647Z,1000.76
2019-03-15T10:13:10.576Z,1000.82
2019-03-15T10:14:10.510Z,1000.82
2019-03-15T10:15:10.410Z,1000.80
2019-03-15T10:16:10.334Z,1000.83
2019-03-15T10:17:10.233Z,1000.75
2019-03-15T10:18:10.166Z,1000.73
2019-03-15T10:19:10.064Z,1000.72
2019-03-15T10:20:12.467Z,1000.73
2019-03-15T10:21:09.913Z,1000.75
2019-03-15T10:22:09.838Z,1000.76
2019-03-15T10:23:09.730Z,1000.79
2019-03-15T10:24:09.668Z,1000.81
2019-03-15T10:25:09.571Z,1000.84
2019-03-15T10:26:09.513Z,1000.91
2019-03-15T10:27:09.410Z,1000.92
2019-03-15T10:28:09.331Z,1000.92
2019-03-15T10:29:15.254Z,1000.94
2019-03-15T10:30:09.167Z,1000.89
2019-03-15T10:31:09.078Z,1000.90
2019-03-15T10:32:08.999Z,1000.81
2019-03-15T10:33:08.897Z,1000.88
2019-03-15T10:34:08.824Z,1000.91
2019-03-15T10:35:08.733Z,1000.95
2019-03-15T10:36:08.673Z,1000.88
2019-03-15T10:37:08.585Z,1001.00
2019-03-15T10:38:08.489Z,1000.97
2019-03-15T10:39:08.419Z,1001.05
2019-03-15T10:40:08.325Z,1001.00
2019-03-15T10:41:08.250Z,1001.04
2019-03-15T10:42:08.169Z,1000.99
2019-03-15T10:43:08.079Z,1000.96
2019-03-15T10:44:07.987Z,1001.05
2019-03-15T10:45:07.911Z,1001.10
2019-03-15T10:46:07.831Z,1001.16
2019-03-15T10:47:07.733Z,1001.06
2019-03-15T10:48:08.267Z,1001.10
2019-03-15T10:49:07.577Z,1001.04
2019-03-15T10:50:07.502Z,1001.16
2019-03-15T10:51:07.421Z,1001.15
2019-03-15T10:52:07.329Z,1001.12
2019-03-15T10:53:07.238Z,1001.14
2019-03-15T10:54:07.161Z,1001.08
2019-03-15T10:55:07.072Z,1001.04
2019-03-15T10:56:07.005Z,1001.05
2019-03-15T10:57:06.910Z,1001.10
2019-03-15T10:58:06.819Z,1001.20
2019-03-15T10:59:06.750Z,1001.13
2019-03-15T11:00:06.650Z,1001.19
2019-03-15T11:01:06.586Z,1001.26
2019-03-15T11:02:06.488Z,1001.26
2019-03-15T11:03:06.406Z,1001.25
2019-03-15T11:04:06.327Z,1001.24
2019-03-15T11:05:06.240Z,1001.19
2019-03-15T11:06:06.161Z,1001.16
2019-03-15T11:07:06.073Z,1001.21
2019-03-15T11:08:05.994Z,1001.20
2019-03-15T11:09:05.911Z,1001.24
2019-03-15T11:10:05.827Z,1001.16
2019-03-15T11:11:05.761Z,1001.21
2019-03-15T11:12:05.651Z,1001.21
2019-03-15T11:13:05.571Z,1001.23
2019-03-15T11:14:05.488Z,1001.21
2019-03-15T11:15:05.410Z,1001.29
2019-03-15T11:16:05.344Z,1001.29
2019-03-15T11:17:05.248Z,1001.31
2019-03-15T11:18:05.162Z,1001.32
2019-03-15T11:19:05.077Z,1001.30
2019-03-15T11:20:04.984Z,1001.36
2019-03-15T11:21:04.904Z,1001.45
2019-03-15T11:22:04.826Z,1001.35
2019-03-15T11:23:04.749Z,1001.40
2019-03-15T11:24:04.656Z,1001.40
2019-03-15T11:25:04.573Z,1001.48
2019-03-15T11:26:13.592Z,1001.48
2019-03-15T11:27:04.417Z,1001.51
2019-03-15T11:28:04.319Z,1001.50
2019-03-15T11:29:04.260Z,1001.54
2019-03-15T11:30:04.154Z,1001.65
2019-03-15T11:31:04.088Z,1001.66
2019-03-15T11:32:04.007Z,1001.69
2019-03-15T11:33:03.902Z,1001.70
2019-03-15T11:34:03.820Z,1001.59
2019-03-15T11:35:03.742Z,1001.68
2019-03-15T11:36:03.659Z,1001.89
2019-03-15T11:37:04.606Z,1001.86
2019-03-15T11:38:03.487Z,1001.87
2019-03-15T11:39:03.401Z,1001.96
2019-03-15T11:40:03.331Z,1001.68
2019-03-15T11:41:03.249Z,1001.84
2019-03-15T11:42:03.172Z,1001.79
2019-03-15T11:43:03.079Z,1001.73
2019-03-15T11:44:02.991Z,1001.80
2019-03-15T11:45:02.911Z,1001.77
2019-03-15T11:46:02.831Z,1001.63
2019-03-15T11:47:02.777Z,1001.57
2019-03-15T11:48:04.285Z,1001.69
2019-03-15T11:49:02.590Z,1001.67
2019-03-15T11:50:02.496Z,1001.76
2019-03-15T11:51:02.413Z,1001.70
2019-03-15T11:52:02.352Z,1001.64
2019-03-15T11:53:02.247Z,1001.56
2019-03-15T11:54:02.188Z,1001.63
2019-03-15T11:55:02.089Z,1001.56
2019-03-15T11:56:02.004Z,1001.57
2019-03-15T11:57:01.942Z,1001.68
2019-03-15T11:58:01.838Z,1001.66
2019-03-15T11:59:01.756Z,1001.68
2019-03-15T12:00:01.670Z,1001.60
2019-03-15T12:01:01.593Z,1001.60
2019-03-15T12:02:04.226Z,1001.61
2019-03-15T12:03:01.435Z,1001.62
2019-03-15T12:04:01.338Z,1001.55